11:36
Airports
History
Links
Donate
Help keep this website running!
PayPal
Bitcoin
This page is community maintained. The information is intended for PC simulator navigation or reference.
Always use approved charts for navigation.
CYVQ
NORMAN WELLS
NORMAN WELLS (CYVQ)
Norman Wells, Northwest Territories, Canada
(U)
Lat/Lng:65° 16' 53.82" N / 126° 47' 53.6" W
65.281616 / -126.798223
Elevation:238'ft / 73mMSL
ID / ICAO:CYVQ
Runways:1
Longest:09-27
Asphalt 1,819m / 5,967ft
METAR11:00 GMT 2018-01-16
Altimeter: 29.76
Visibility: 30.0 statute miles
Wind: 3 knots (from 090°)
Temp: -13°c / 9°f
Humidity: 84.8%

METAR: CYVQ 161100Z 09003KT 050V120 30SM SKC M13/M15 A2976 RMK SLP084

(Powered by phpweather)
Airport Radio Frequencies
Tower: 122.2
Approach: 134.82
Nearby VORs <50NM
Nearby NDBs
Runway 09 / 27
Dimensions:1818.6 x 45.7m 5967' x 150'ft
Surface:Asphalt
Edge Lights:Medium intensity
Runway 09 [A]Runway 27 [B]
Heading:118°TH 298°TH
Lat:
Lng:
65° 17' 8"N
126° 48' 55.41"W
65° 16' 39.63"N
126° 46' 51.79"W
ALS:MALSMALS
TDZ:Yes, lighted
User Notes and Comments
65° 16' 53.82" N / 126° 47' 53.6" W
Distance To
Airport ID:
Nearby Airports
(C) Tulita 44.0 NM
CZFN SE 125°
4 Ford Bay 79.1 NM
BC2 NE 48°
4 FORT GOOD HOPE 84.6 NM
CYGH NW 321°
4 Deline 97.4 NM
CYWJ E 92°
4 Colville Lake 143.1 NM
EB3 N
4 WRIGLEY 175.1 NM
CYWY SE 144°
4 Macmillan Pass 177.8 NM
CFC4 SW 215°
VFR Chart
Flight Planning at SkyVector.com